Time;durP1;ratioP1;P1;durP2;ratioP2;P2;SDS_P1;SDS_P2;PMS_P1;PMS_P2;Temp;Humidity;BMP_temperature;BMP_pressure;BME280_temperature;BME280_humidity;BME280_pressure;Samples;Min_cycle;Max_cycle;Signal;HPM_P1;HPM_P2
2022/04/07 04:06:23;;;;;;;2.90;1.40;;;8.80;99.90;;;;;;5066387;23;21172;-74
2022/04/07 04:08:51;;;;;;;1.60;1.50;;;8.80;99.90;;;;;;4896341;29;20612;-78
2022/04/07 04:11:19;;;;;;;1.47;1.37;;;8.90;99.90;;;;;;4900177;29;20214;-74
2022/04/07 04:13:47;;;;;;;1.73;1.40;;;8.80;99.90;;;;;;4909314;29;20229;-76
2022/04/07 04:16:17;;;;;;;1.47;1.37;;;8.70;99.90;;;;;;4902214;29;20617;-76
2022/04/07 04:18:45;;;;;;;1.40;1.30;;;8.60;99.90;;;;;;4898758;29;20228;-77
2022/04/07 04:21:14;;;;;;;2.03;1.40;;;8.60;99.90;;;;;;4899123;29;20281;-78
2022/04/07 04:23:43;;;;;;;1.37;1.27;;;8.60;99.90;;;;;;4899499;29;20301;-75
2022/04/07 04:26:11;;;;;;;1.73;1.10;;;8.60;99.90;;;;;;4898608;29;20216;-78
2022/04/07 04:28:39;;;;;;;1.40;1.30;;;8.50;99.90;;;;;;4898557;29;20241;-77
2022/04/07 04:31:07;;;;;;;1.23;1.13;;;8.40;99.90;;;;;;4905427;29;20233;-76
2022/04/07 04:33:36;;;;;;;2.03;1.30;;;8.40;99.90;;;;;;4909627;29;20591;-75
2022/04/07 04:36:04;;;;;;;1.33;1.23;;;8.30;99.90;;;;;;4902929;29;20237;-77
2022/04/07 04:38:32;;;;;;;1.37;1.20;;;8.30;99.90;;;;;;4901344;29;20667;-77
2022/04/07 04:41:02;;;;;;;1.80;1.40;;;8.30;99.90;;;;;;4899179;29;20248;-78
2022/04/07 04:43:30;;;;;;;1.53;1.20;;;8.30;99.90;;;;;;4898682;29;20237;-77
2022/04/07 04:45:58;;;;;;;1.10;1.00;;;8.30;99.90;;;;;;4898114;29;20210;-77
2022/04/07 04:48:27;;;;;;;2.07;1.30;;;8.30;99.90;;;;;;4898490;29;20209;-75
2022/04/07 04:50:55;;;;;;;1.50;1.40;;;8.30;99.90;;;;;;4898700;29;20232;-75
2022/04/07 04:53:24;;;;;;;1.93;1.10;;;8.30;99.90;;;;;;4898500;29;20217;-74
2022/04/07 04:55:52;;;;;;;2.33;1.20;;;8.30;99.90;;;;;;4898485;29;20244;-77
2022/04/07 04:58:23;;;;;;;1.80;1.20;;;8.40;99.90;;;;;;4897829;29;20217;-74
2022/04/07 05:00:51;;;;;;;2.30;1.00;;;8.40;99.90;;;;;;4898755;29;20301;-76
2022/04/07 05:03:19;;;;;;;1.93;1.00;;;8.40;99.90;;;;;;4899706;29;20576;-74
2022/04/07 05:05:47;;;;;;;1.67;1.10;;;8.50;99.90;;;;;;4899448;29;20261;-76
2022/04/07 05:08:15;;;;;;;1.43;0.93;;;8.50;99.90;;;;;;4898912;29;20210;-75
2022/04/07 05:10:45;;;;;;;2.03;1.10;;;8.50;99.90;;;;;;4899123;29;20329;-75
2022/04/07 05:13:13;;;;;;;1.23;1.13;;;8.60;99.90;;;;;;4899623;29;20282;-76
2022/04/07 05:15:42;;;;;;;1.20;0.90;;;8.60;99.90;;;;;;4900102;29;20236;-75
2022/04/07 05:18:10;;;;;;;1.03;1.00;;;8.60;99.90;;;;;;4900018;29;20292;-74
2022/04/07 05:20:40;;;;;;;2.37;1.07;;;8.60;99.90;;;;;;4901432;29;20219;-74
2022/04/07 05:23:08;;;;;;;1.50;1.00;;;8.70;99.90;;;;;;4911063;29;20711;-76
2022/04/07 05:25:36;;;;;;;1.50;0.90;;;8.80;99.90;;;;;;4917553;29;20222;-76
2022/04/07 05:28:04;;;;;;;1.00;1.00;;;8.80;99.90;;;;;;4917985;29;20221;-75
2022/04/07 05:30:32;;;;;;;0.90;0.90;;;8.80;99.90;;;;;;4916572;29;20660;-76
2022/04/07 05:33:02;;;;;;;2.47;1.10;;;8.80;99.90;;;;;;4916659;29;20202;-77
2022/04/07 05:35:31;;;;;;;1.00;1.00;;;8.80;99.90;;;;;;4917849;29;20260;-77
2022/04/07 05:37:59;;;;;;;1.57;1.00;;;8.80;99.90;;;;;;4918422;29;20201;-74
2022/04/07 05:40:28;;;;;;;1.80;1.10;;;8.80;99.90;;;;;;4916509;29;20265;-75
2022/04/07 05:42:56;;;;;;;16.60;9.40;;;8.80;99.90;;;;;;4915653;29;20241;-75
2022/04/07 05:45:24;;;;;;;4.13;2.77;;;8.70;99.90;;;;;;4916313;29;20218;-74
2022/04/07 05:47:52;;;;;;;1.83;1.20;;;8.70;99.90;;;;;;4901725;29;20260;-77
2022/04/07 05:50:22;;;;;;;1.73;1.27;;;8.70;99.90;;;;;;4898206;29;20240;-77
2022/04/07 05:52:52;;;;;;;1.43;0.90;;;8.70;99.90;;;;;;4898993;29;20221;-77
2022/04/07 05:55:20;;;;;;;1.90;1.10;;;8.70;99.90;;;;;;4899620;29;20261;-76
2022/04/07 05:57:49;;;;;;;1.47;1.37;;;8.80;99.90;;;;;;4900892;29;20245;-76
2022/04/07 06:00:18;;;;;;;1.23;1.07;;;8.80;99.90;;;;;;4900143;29;20686;-75
2022/04/07 06:02:47;;;;;;;2.20;1.00;;;9.00;99.90;;;;;;4900320;29;20293;-76
2022/04/07 06:05:19;;;;;;;2.30;1.10;;;9.10;99.90;;;;;;4904139;29;20265;-76
2022/04/07 06:07:49;;;;;;;1.13;0.90;;;9.30;99.90;;;;;;4905430;29;20217;-74
2022/04/07 06:10:17;;;;;;;2.13;1.10;;;9.60;99.90;;;;;;4905266;29;20214;-74
2022/04/07 06:12:46;;;;;;;1.43;1.30;;;9.80;99.90;;;;;;4904889;29;20241;-75
2022/04/07 06:15:14;;;;;;;1.53;1.43;;;9.90;99.90;;;;;;4902571;29;20240;-75
2022/04/07 06:17:45;;;;;;;2.93;1.80;;;10.20;99.90;;;;;;4901324;29;20218;-76
2022/04/07 06:20:14;;;;;;;1.60;1.50;;;10.60;99.90;;;;;;4900230;29;20220;-77
2022/04/07 06:22:44;;;;;;;1.47;1.30;;;10.70;99.90;;;;;;4901112;29;20282;-77
2022/04/07 06:25:14;;;;;;;3.37;1.30;;;10.90;99.90;;;;;;4899657;29;20703;-74
2022/04/07 06:27:43;;;;;;;2.53;1.80;;;11.10;99.90;;;;;;4898638;29;20644;-75
2022/04/07 06:30:13;;;;;;;1.03;0.90;;;11.30;99.90;;;;;;4900122;29;20313;-76
2022/04/07 06:32:41;;;;;;;1.37;0.90;;;11.50;99.90;;;;;;4899728;29;20214;-75
2022/04/07 06:35:12;;;;;;;3.13;0.83;;;12.10;99.90;;;;;;4898873;29;20240;-75
2022/04/07 06:37:49;;;;;;;3.20;1.00;;;12.60;99.90;;;;;;4899906;29;20273;-76
2022/04/07 06:40:24;;;;;;;1.10;1.00;;;13.20;99.90;;;;;;4898179;29;20197;-76
2022/04/07 06:42:54;;;;;;;1.73;1.10;;;13.60;99.90;;;;;;4895807;29;20218;-77
2022/04/07 06:45:25;;;;;;;1.40;0.80;;;13.60;99.90;;;;;;4897045;29;20269;-76
2022/04/07 06:47:53;;;;;;;2.67;1.00;;;13.30;99.90;;;;;;4895650;29;20218;-76
2022/04/07 06:50:23;;;;;;;4.23;0.80;;;13.80;99.90;;;;;;4884361;29;20283;-76
2022/04/07 06:52:53;;;;;;;1.80;0.60;;;14.30;99.90;;;;;;4898942;29;20206;-75
2022/04/07 06:55:23;;;;;;;1.43;1.10;;;14.60;99.90;;;;;;4899385;29;20233;-73
2022/04/07 06:57:54;;;;;;;3.00;0.90;;;14.90;99.90;;;;;;4898497;29;20707;-74
2022/04/07 07:00:23;;;;;;;1.03;0.73;;;15.50;99.90;;;;;;4892922;29;20796;-74
2022/04/07 07:02:53;;;;;;;1.20;0.60;;;16.00;99.90;;;;;;4888917;29;20218;-74
2022/04/07 07:05:22;;;;;;;0.90;0.80;;;15.80;99.10;;;;;;4892407;29;20281;-74
2022/04/07 07:07:51;;;;;;;2.77;0.90;;;15.50;99.30;;;;;;4898131;29;20240;-75
2022/04/07 07:10:23;;;;;;;0.83;0.70;;;15.60;99.50;;;;;;4897581;29;20221;-77
2022/04/07 07:12:53;;;;;;;2.57;0.60;;;15.90;98.70;;;;;;4887393;29;20198;-76
2022/04/07 07:15:22;;;;;;;0.60;0.60;;;16.40;98.50;;;;;;4878676;29;20237;-74
2022/04/07 07:17:51;;;;;;;2.07;1.03;;;16.80;97.00;;;;;;4889891;29;20241;-75
2022/04/07 07:20:20;;;;;;;2.37;0.60;;;17.20;96.30;;;;;;4899170;29;20622;-75
2022/04/07 07:22:49;;;;;;;0.60;0.57;;;17.40;95.10;;;;;;4895752;29;20206;-74
2022/04/07 07:25:17;;;;;;;0.80;0.80;;;17.20;95.20;;;;;;4895537;29;20222;-75
2022/04/07 07:27:48;;;;;;;1.00;0.60;;;18.20;94.40;;;;;;4897964;29;20218;-76
2022/04/07 07:30:18;;;;;;;2.07;0.50;;;18.30;93.20;;;;;;4898242;29;20221;-76
2022/04/07 07:32:47;;;;;;;1.90;0.73;;;18.80;91.40;;;;;;4898006;29;20237;-76
2022/04/07 07:35:18;;;;;;;3.80;0.60;;;19.40;91.00;;;;;;4897855;29;20632;-75
2022/04/07 07:37:51;;;;;;;1.40;0.63;;;20.00;89.70;;;;;;4897950;29;20214;-75
2022/04/07 07:40:21;;;;;;;2.10;0.87;;;20.40;87.30;;;;;;4899694;29;20631;-76
2022/04/07 07:42:53;;;;;;;2.90;0.67;;;20.80;83.50;;;;;;4897479;29;20838;-75
2022/04/07 07:45:21;;;;;;;0.37;0.30;;;21.00;81.10;;;;;;4897409;29;20222;-77
2022/04/07 07:48:09;;;;;;;0.93;0.70;;;20.60;79.10;;;;;;4897240;29;20301;-74
2022/04/07 07:50:40;;;;;;;1.50;0.30;;;20.30;81.30;;;;;;4899414;29;20701;-74
2022/04/07 07:53:09;;;;;;;1.13;0.30;;;21.60;79.20;;;;;;4896203;29;20213;-76
2022/04/07 07:55:38;;;;;;;0.83;0.40;;;21.90;77.10;;;;;;4894057;29;20238;-74
2022/04/07 07:58:07;;;;;;;0.53;0.50;;;20.90;77.50;;;;;;4901505;29;20613;-75
2022/04/07 08:00:35;;;;;;;1.80;0.47;;;20.50;78.30;;;;;;4902555;29;20234;-74
2022/04/07 08:03:04;;;;;;;1.43;0.30;;;20.50;76.40;;;;;;4900621;29;20213;-75
2022/04/07 08:05:32;;;;;;;2.13;0.53;;;20.00;74.20;;;;;;4895507;29;20210;-76
2022/04/07 08:08:06;;;;;;;1.37;0.83;;;20.00;76.10;;;;;;4889420;29;20226;-77
2022/04/07 08:10:34;;;;;;;0.87;0.50;;;20.30;75.90;;;;;;4896439;29;20229;-74
2022/04/07 08:13:02;;;;;;;3.40;0.37;;;21.30;73.50;;;;;;4894484;29;20211;-78
2022/04/07 08:15:34;;;;;;;2.17;0.40;;;21.10;70.80;;;;;;4898379;29;20257;-74
2022/04/07 08:18:04;;;;;;;3.37;0.70;;;20.60;70.80;;;;;;4898023;29;20734;-75
2022/04/07 08:20:32;;;;;;;1.60;0.37;;;20.40;71.00;;;;;;4898548;29;20209;-77
2022/04/07 08:23:00;;;;;;;0.67;0.50;;;20.40;72.80;;;;;;4898407;29;20678;-76
2022/04/07 08:25:29;;;;;;;1.37;0.40;;;20.60;71.70;;;;;;4898708;29;20232;-75
2022/04/07 08:27:57;;;;;;;2.63;0.53;;;21.00;69.70;;;;;;4899192;29;20217;-74
2022/04/07 08:30:26;;;;;;;5.00;0.57;;;20.30;68.90;;;;;;4899701;29;20564;-77
2022/04/07 08:32:57;;;;;;;3.73;0.60;;;19.40;71.40;;;;;;4899009;29;20277;-76
2022/04/07 08:35:25;;;;;;;0.43;0.30;;;19.30;75.20;;;;;;4899231;29;20234;-77
2022/04/07 08:37:53;;;;;;;1.53;0.63;;;19.80;74.80;;;;;;4895834;29;20637;-75
2022/04/07 08:40:22;;;;;;;1.73;0.40;;;20.60;71.40;;;;;;4898290;29;20241;-77
2022/04/07 08:42:51;;;;;;;0.97;0.37;;;20.90;71.90;;;;;;4889644;29;20673;-76
2022/04/07 08:45:20;;;;;;;1.13;0.47;;;20.70;69.90;;;;;;4897496;29;20619;-77
2022/04/07 08:47:49;;;;;;;3.13;0.50;;;20.70;70.00;;;;;;4897334;29;20206;-76
2022/04/07 08:50:22;;;;;;;2.53;0.40;;;20.90;70.00;;;;;;4900203;29;20221;-75
2022/04/07 08:52:51;;;;;;;1.70;0.40;;;20.50;69.20;;;;;;4906829;29;20245;-75
2022/04/07 08:55:20;;;;;;;1.40;0.30;;;20.50;70.20;;;;;;4896502;29;20680;-73
2022/04/07 08:57:50;;;;;;;3.53;0.60;;;20.30;70.30;;;;;;4896547;29;20234;-78
2022/04/07 09:00:24;;;;;;;1.57;0.50;;;20.60;69.60;;;;;;4897027;29;20609;-76
2022/04/07 09:02:55;;;;;;;2.03;0.50;;;21.10;68.80;;;;;;4896759;29;20232;-75
2022/04/07 09:05:31;;;;;;;1.80;0.60;;;21.10;68.10;;;;;;4898003;29;20245;-74
2022/04/07 09:08:00;;;;;;;2.87;0.70;;;21.80;67.10;;;;;;4899004;29;20209;-75
2022/04/07 09:10:28;;;;;;;1.17;0.53;;;22.20;64.20;;;;;;4899610;29;20221;-74
2022/04/07 09:13:03;;;;;;;1.63;0.50;;;22.10;64.30;;;;;;4899029;29;20277;-75
2022/04/07 09:15:32;;;;;;;2.90;0.60;;;21.70;63.90;;;;;;4897535;29;20332;-75
2022/04/07 09:18:04;;;;;;;1.53;0.53;;;21.60;64.60;;;;;;4896735;29;20277;-76
2022/04/07 09:20:42;;;;;;;2.30;0.57;;;21.70;67.20;;;;;;4896288;29;21089;-78
2022/04/07 09:23:13;;;;;;;2.60;0.50;;;21.20;62.70;;;;;;4896193;29;20676;-74
2022/04/07 09:25:46;;;;;;;3.17;0.50;;;20.60;63.80;;;;;;4896258;29;20240;-78
2022/04/07 09:28:30;;;;;;;0.97;0.40;;;20.10;66.70;;;;;;4889429;29;20218;-77
2022/04/07 09:30:59;;;;;;;0.53;0.40;;;20.60;66.30;;;;;;4889360;29;20213;-76
2022/04/07 09:33:28;;;;;;;0.57;0.50;;;21.00;65.40;;;;;;4893951;29;20244;-78
2022/04/07 09:36:05;;;;;;;2.37;0.50;;;21.40;65.20;;;;;;4894984;29;20220;-77
2022/04/07 09:38:34;;;;;;;0.40;0.40;;;22.40;63.80;;;;;;4896720;29;20292;-76
2022/04/07 09:41:07;;;;;;;0.27;0.27;;;22.70;61.40;;;;;;4896668;29;20237;-76
2022/04/07 09:43:45;;;;;;;0.97;0.50;;;23.50;60.80;;;;;;4895504;29;20759;-77
2022/04/07 09:46:16;;;;;;;2.33;0.40;;;21.90;60.20;;;;;;4896815;29;20661;-77
2022/04/07 09:49:05;;;;;;;1.23;0.50;;;21.60;63.00;;;;;;4894271;29;20304;-76
2022/04/07 09:51:45;;;;;;;0.37;0.33;;;21.70;61.60;;;;;;4893192;29;20202;-78
2022/04/07 09:54:15;;;;;;;1.07;0.30;;;21.60;62.20;;;;;;4889639;29;20300;-78
2022/04/07 09:56:45;;;;;;;0.40;0.40;;;20.90;63.00;;;;;;4895206;29;20300;-74
2022/04/07 09:59:16;;;;;;;1.03;0.50;;;20.10;63.00;;;;;;4894881;29;20225;-77
2022/04/07 10:01:45;;;;;;;1.97;0.33;;;19.40;65.20;;;;;;4895689;29;20620;-76
2022/04/07 10:04:13;;;;;;;0.63;0.50;;;18.60;67.30;;;;;;4895727;29;20627;-74
2022/04/07 10:06:44;;;;;;;2.57;0.47;;;18.30;68.20;;;;;;4895155;29;20256;-75
2022/04/07 10:09:14;;;;;;;1.67;0.40;;;18.20;70.00;;;;;;4894112;29;20281;-77
2022/04/07 10:11:43;;;;;;;1.07;0.40;;;18.00;71.80;;;;;;4895549;29;20288;-78
2022/04/07 10:14:14;;;;;;;2.47;0.53;;;18.20;72.30;;;;;;4892713;29;20213;-78
2022/04/07 10:16:45;;;;;;;2.53;0.50;;;19.10;70.70;;;;;;4895357;29;20228;-78
2022/04/07 10:19:21;;;;;;;0.40;0.40;;;20.00;67.60;;;;;;4894920;29;20210;-76
2022/04/07 10:22:21;;;;;;;1.77;0.50;;;20.00;68.50;;;;;;4883873;29;20598;-78
2022/04/07 10:24:54;;;;;;;4.30;0.40;;;19.30;68.40;;;;;;4895791;29;20275;-77
2022/04/07 10:27:35;;;;;;;2.00;0.50;;;18.90;69.10;;;;;;4894995;29;20308;-78
2022/04/07 10:30:09;;;;;;;2.17;0.57;;;17.90;70.20;;;;;;4895298;29;20626;-74
2022/04/07 10:32:38;;;;;;;1.43;0.40;;;17.60;72.00;;;;;;4888124;29;20307;-75
2022/04/07 10:35:08;;;;;;;1.63;0.47;;;17.30;74.20;;;;;;4895897;29;20586;-76
2022/04/07 10:37:45;;;;;;;0.97;0.50;;;16.80;73.80;;;;;;4897105;29;20240;-76
2022/04/07 10:40:33;;;;;;;0.30;0.30;;;16.70;73.10;;;;;;4879076;29;20210;-75
2022/04/07 10:43:19;;;;;;;1.43;0.40;;;16.80;74.80;;;;;;4899294;29;20237;-76
2022/04/07 10:45:49;;;;;;;1.93;0.40;;;17.00;75.60;;;;;;4895679;29;20257;-76
2022/04/07 10:48:29;;;;;;;3.00;0.30;;;17.70;75.20;;;;;;4896073;29;20265;-75
2022/04/07 10:50:59;;;;;;;3.13;0.70;;;18.20;71.60;;;;;;4904772;29;20228;-74
2022/04/07 10:53:31;;;;;;;2.00;0.40;;;18.60;70.90;;;;;;4904123;29;20217;-76
2022/04/07 10:56:01;;;;;;;0.20;0.20;;;18.80;71.60;;;;;;4890367;29;20309;-74
2022/04/07 10:58:44;;;;;;;0.30;0.30;;;18.90;71.20;;;;;;4899921;29;20640;-78
2022/04/07 11:01:49;;;;;;;2.37;0.30;;;19.00;68.80;;;;;;4901779;29;20751;-75
2022/04/07 11:04:40;;;;;;;1.00;0.60;;;18.40;69.40;;;;;;4895848;29;20810;-76
2022/04/07 11:07:16;;;;;;;2.13;1.57;;;18.20;69.80;;;;;;4896105;29;20288;-74
2022/04/07 11:09:52;;;;;;;2.40;0.60;;;17.80;70.30;;;;;;4894957;29;20218;-76
2022/04/07 11:12:23;;;;;;;1.93;1.07;;;17.10;70.20;;;;;;4893657;29;20300;-75
2022/04/07 11:14:53;;;;;;;1.80;0.60;;;16.60;72.30;;;;;;4889501;29;20231;-75
2022/04/07 11:17:31;;;;;;;4.83;0.70;;;16.30;72.80;;;;;;4892213;29;20236;-74
2022/04/07 11:20:13;;;;;;;1.33;1.10;;;16.20;73.30;;;;;;4898073;29;20694;-76
2022/04/07 11:22:54;;;;;;;1.53;1.43;;;16.10;74.00;;;;;;4880371;29;20712;-75
2022/04/07 11:25:31;;;;;;;2.47;1.10;;;16.10;75.00;;;;;;4897925;29;20671;-76
2022/04/07 11:28:11;;;;;;;2.27;0.60;;;16.10;75.60;;;;;;4898049;29;20204;-74
2022/04/07 11:30:47;;;;;;;1.93;1.13;;;15.90;75.00;;;;;;4898540;29;20252;-75
2022/04/07 11:33:38;;;;;;;1.63;0.90;;;15.70;75.90;;;;;;4897644;29;20213;-77
2022/04/07 11:36:28;;;;;;;1.30;0.93;;;15.70;76.90;;;;;;4898008;29;20214;-76
2022/04/07 11:38:58;;;;;;;1.30;0.97;;;15.60;76.40;;;;;;4896659;29;20226;-74
2022/04/07 11:41:41;;;;;;;1.60;0.67;;;15.50;77.50;;;;;;4898498;29;20340;-78
2022/04/07 11:44:11;;;;;;;2.97;1.77;;;15.50;78.40;;;;;;4898623;29;20225;-76
2022/04/07 11:46:40;;;;;;;4.03;1.40;;;15.70;79.70;;;;;;4897263;29;20691;-75
2022/04/07 11:49:11;;;;;;;3.33;1.57;;;15.70;79.80;;;;;;4890876;29;20293;-76
2022/04/07 11:51:41;;;;;;;1.43;0.80;;;15.70;79.60;;;;;;4887064;29;20211;-74
2022/04/07 11:54:09;;;;;;;4.17;1.93;;;15.80;78.80;;;;;;4885990;29;20286;-75
2022/04/07 11:56:40;;;;;;;2.50;1.57;;;15.70;80.90;;;;;;4897890;29;20638;-76
2022/04/07 11:59:10;;;;;;;3.60;1.30;;;15.80;80.50;;;;;;4898540;29;20229;-76
2022/04/07 12:01:40;;;;;;;3.47;1.23;;;15.70;78.50;;;;;;4894706;29;20221;-74
2022/04/07 12:04:10;;;;;;;2.97;0.77;;;15.70;78.60;;;;;;4898754;29;20212;-76
2022/04/07 12:06:45;;;;;;;2.60;0.87;;;15.70;78.90;;;;;;4898400;29;20232;-75
2022/04/07 12:09:19;;;;;;;2.70;1.00;;;15.80;78.70;;;;;;4895641;29;20691;-73
2022/04/07 12:11:49;;;;;;;2.23;0.80;;;15.70;79.00;;;;;;4897033;29;20225;-75
2022/04/07 12:14:21;;;;;;;4.17;0.80;;;15.60;79.80;;;;;;4897636;29;20213;-74
2022/04/07 12:16:50;;;;;;;2.00;0.77;;;15.60;79.40;;;;;;4898740;29;20304;-77
2022/04/07 12:19:20;;;;;;;3.50;0.90;;;15.50;80.00;;;;;;4897887;29;20237;-75
2022/04/07 12:21:53;;;;;;;2.00;1.00;;;15.50;80.60;;;;;;4899030;29;20690;-75
2022/04/07 12:24:21;;;;;;;1.67;0.63;;;15.70;81.20;;;;;;4898686;29;20659;-74
2022/04/07 12:26:52;;;;;;;2.77;0.80;;;15.80;79.80;;;;;;4897621;29;21047;-74
2022/04/07 12:29:25;;;;;;;2.60;0.50;;;15.80;79.70;;;;;;4898117;29;20312;-76
2022/04/07 12:32:01;;;;;;;2.93;0.40;;;15.60;80.30;;;;;;4897797;29;20218;-76
2022/04/07 12:34:29;;;;;;;0.70;0.40;;;15.40;81.00;;;;;;4897763;29;20232;-77
2022/04/07 12:36:57;;;;;;;1.63;0.70;;;15.40;81.80;;;;;;4893765;29;20245;-74
2022/04/07 12:39:31;;;;;;;1.60;0.40;;;15.30;82.00;;;;;;4893580;29;20236;-75
2022/04/07 12:42:08;;;;;;;0.50;0.30;;;15.30;82.60;;;;;;4885832;29;20229;-74
2022/04/07 12:44:39;;;;;;;0.40;0.40;;;15.20;81.70;;;;;;4888614;29;20245;-75
2022/04/07 12:47:14;;;;;;;0.73;0.30;;;15.20;83.40;;;;;;4897004;29;20292;-77
2022/04/07 12:49:55;;;;;;;0.60;0.30;;;15.00;83.40;;;;;;4898377;29;20228;-77
2022/04/07 12:52:35;;;;;;;0.83;0.50;;;15.00;84.60;;;;;;4898230;29;20212;-75
2022/04/07 12:55:06;;;;;;;1.03;0.40;;;15.10;84.20;;;;;;4897510;29;20293;-75
2022/04/07 12:57:38;;;;;;;1.03;0.70;;;15.20;83.70;;;;;;4897888;29;20699;-74
2022/04/07 13:00:26;;;;;;;2.47;0.70;;;15.40;85.10;;;;;;4889763;29;20212;-74
2022/04/07 13:02:59;;;;;;;2.20;0.57;;;15.60;83.20;;;;;;4897978;29;20297;-75
2022/04/07 13:05:28;;;;;;;2.97;0.63;;;15.60;82.40;;;;;;4897880;29;20249;-75
2022/04/07 13:07:58;;;;;;;0.30;0.30;;;15.70;83.00;;;;;;4897524;29;20676;-77
2022/04/07 13:10:27;;;;;;;1.43;0.70;;;15.60;81.80;;;;;;4897483;29;20221;-75
2022/04/07 13:12:57;;;;;;;1.73;0.50;;;15.70;84.40;;;;;;4897932;29;20317;-77
2022/04/07 13:15:27;;;;;;;5.07;0.80;;;15.60;82.70;;;;;;4897678;29;20297;-76
2022/04/07 13:17:55;;;;;;;2.20;0.60;;;15.40;82.20;;;;;;4897685;29;20209;-79
2022/04/07 13:20:23;;;;;;;3.80;0.60;;;15.30;81.40;;;;;;4898516;29;20259;-76
2022/04/07 13:22:52;;;;;;;1.47;0.40;;;15.30;82.10;;;;;;4897092;29;20256;-77
2022/04/07 13:25:20;;;;;;;1.40;0.53;;;15.30;82.10;;;;;;4897810;29;20635;-76
2022/04/07 13:27:49;;;;;;;3.73;1.23;;;15.20;83.20;;;;;;4894646;29;20209;-77
2022/04/07 13:30:24;;;;;;;4.27;0.93;;;15.10;84.30;;;;;;4896328;29;20221;-75
2022/04/07 13:32:53;;;;;;;2.83;0.40;;;15.00;84.00;;;;;;4892853;29;20296;-74
2022/04/07 13:35:23;;;;;;;2.37;0.40;;;14.90;83.70;;;;;;4897288;29;20213;-77
2022/04/07 13:37:51;;;;;;;5.07;0.50;;;14.80;84.50;;;;;;4896859;29;20233;-75
2022/04/07 13:40:24;;;;;;;1.57;0.33;;;14.60;84.40;;;;;;4896600;29;20241;-76
2022/04/07 13:43:00;;;;;;;5.57;0.40;;;14.60;85.90;;;;;;4896992;29;20284;-76
2022/04/07 13:45:31;;;;;;;2.77;0.40;;;14.40;86.70;;;;;;4898777;29;20277;-76
2022/04/07 13:47:59;;;;;;;1.63;0.60;;;14.30;88.00;;;;;;4898906;29;20669;-76
2022/04/07 13:50:27;;;;;;;1.40;0.30;;;14.10;90.10;;;;;;4902015;29;20210;-75
2022/04/07 13:52:57;;;;;;;3.87;0.63;;;14.00;91.70;;;;;;4891609;29;20245;-78
2022/04/07 13:55:25;;;;;;;1.90;0.30;;;13.80;93.20;;;;;;4899144;29;20242;-75
2022/04/07 13:57:54;;;;;;;1.08;0.50;;;13.50;94.70;;;;;;4897351;29;20505;-76
2022/04/07 14:00:24;;;;;;;1.40;0.40;;;13.30;95.10;;;;;;4898636;29;20289;-76
2022/04/07 14:02:54;;;;;;;2.20;0.30;;;13.30;96.00;;;;;;4898070;29;20214;-77
2022/04/07 14:05:22;;;;;;;0.30;0.20;;;13.40;96.40;;;;;;4883974;29;20675;-75
2022/04/07 14:07:50;;;;;;;1.50;0.40;;;13.40;94.60;;;;;;4896404;29;20300;-75
2022/04/07 14:10:18;;;;;;;2.50;0.30;;;13.60;95.00;;;;;;4895910;29;20214;-75
2022/04/07 14:12:47;;;;;;;2.00;0.30;;;13.50;95.50;;;;;;4896294;29;20297;-75
2022/04/07 14:15:15;;;;;;;1.30;0.40;;;13.60;95.10;;;;;;4895949;29;20215;-75
2022/04/07 14:17:43;;;;;;;3.37;0.50;;;13.60;94.70;;;;;;4897497;29;20213;-73
2022/04/07 14:20:13;;;;;;;1.87;0.43;;;13.70;94.80;;;;;;4890147;29;20320;-76
2022/04/07 14:22:45;;;;;;;1.03;0.30;;;13.60;94.90;;;;;;4894926;29;20732;-75
2022/04/07 14:25:13;;;;;;;1.13;0.30;;;13.60;94.70;;;;;;4896040;29;20580;-77
2022/04/07 14:27:42;;;;;;;0.27;0.23;;;13.50;94.70;;;;;;4895791;29;20688;-75
2022/04/07 14:30:10;;;;;;;2.33;0.33;;;13.50;94.70;;;;;;4886775;29;20361;-74
2022/04/07 14:32:40;;;;;;;1.93;0.30;;;13.50;94.10;;;;;;4893002;29;20221;-75
2022/04/07 14:35:30;;;;;;;1.47;0.20;;;13.60;94.20;;;;;;4896961;29;20209;-73
2022/04/07 14:37:59;;;;;;;3.47;0.33;;;13.50;94.30;;;;;;4896902;29;20608;-74
2022/04/07 14:40:27;;;;;;;1.70;0.70;;;13.50;94.50;;;;;;4896907;29;20301;-77
2022/04/07 14:42:56;;;;;;;0.60;0.50;;;13.50;95.00;;;;;;4897379;29;20301;-75
2022/04/07 14:45:25;;;;;;;0.50;0.50;;;13.40;95.60;;;;;;4896742;29;20217;-75
2022/04/07 14:47:53;;;;;;;1.77;0.50;;;13.50;95.40;;;;;;4896963;29;20209;-75
2022/04/07 14:50:23;;;;;;;4.63;0.63;;;13.40;95.70;;;;;;4895847;29;20206;-75
2022/04/07 14:52:54;;;;;;;0.70;0.30;;;13.30;95.90;;;;;;4897338;29;20300;-76
2022/04/07 14:55:22;;;;;;;3.63;0.37;;;13.20;96.10;;;;;;4897776;29;20244;-74
2022/04/07 14:57:50;;;;;;;0.73;0.20;;;13.20;96.10;;;;;;4897316;29;20214;-75
2022/04/07 15:00:21;;;;;;;1.60;0.30;;;13.30;97.00;;;;;;4892529;29;20230;-74
2022/04/07 15:02:49;;;;;;;1.57;0.50;;;13.30;96.90;;;;;;4901649;29;20251;-76
2022/04/07 15:05:18;;;;;;;0.90;0.30;;;13.20;96.70;;;;;;4901347;29;20225;-76
2022/04/07 15:07:46;;;;;;;0.30;0.30;;;13.20;96.80;;;;;;4900704;29;20320;-74
2022/04/07 15:10:22;;;;;;;1.00;0.27;;;13.20;96.70;;;;;;4901278;29;20204;-76
2022/04/07 15:12:55;;;;;;;1.83;0.40;;;13.20;97.20;;;;;;4901253;29;20241;-75
2022/04/07 15:15:24;;;;;;;3.20;2.90;;;13.20;97.70;;;;;;4901310;29;20264;-76
2022/04/07 15:17:52;;;;;;;0.80;0.40;;;13.30;97.60;;;;;;4902418;29;20217;-76
2022/04/07 15:20:23;;;;;;;0.50;0.23;;;13.20;97.60;;;;;;4901436;29;20226;-74
2022/04/07 15:22:51;;;;;;;0.40;0.30;;;13.30;97.60;;;;;;4902065;29;20221;-77
2022/04/07 15:25:21;;;;;;;0.40;0.30;;;13.30;97.40;;;;;;4902909;29;20224;-75
2022/04/07 15:27:49;;;;;;;1.07;0.53;;;13.30;97.50;;;;;;4903366;29;20586;-75
2022/04/07 15:30:18;;;;;;;0.93;0.40;;;13.20;97.50;;;;;;4901460;29;20700;-76
2022/04/07 15:32:48;;;;;;;0.33;0.33;;;13.30;98.10;;;;;;4907104;29;20213;-75
2022/04/07 15:35:16;;;;;;;1.00;0.40;;;13.30;97.30;;;;;;4905900;29;20625;-75
2022/04/07 15:37:44;;;;;;;2.43;0.30;;;13.30;97.40;;;;;;4905367;29;20285;-73
2022/04/07 15:40:12;;;;;;;1.23;0.33;;;13.30;97.70;;;;;;4891795;29;20226;-77
2022/04/07 15:42:42;;;;;;;1.37;0.40;;;13.20;97.70;;;;;;4883509;29;20304;-74
2022/04/07 15:45:11;;;;;;;1.27;0.57;;;13.20;97.90;;;;;;4884482;29;20304;-76
2022/04/07 15:47:39;;;;;;;0.30;0.30;;;13.30;97.90;;;;;;4883585;29;20696;-77
2022/04/07 15:50:09;;;;;;;1.80;0.30;;;13.30;97.70;;;;;;4895962;29;20580;-74
2022/04/07 15:52:37;;;;;;;0.27;0.20;;;13.30;97.50;;;;;;4881261;29;20910;-76
2022/04/07 15:55:06;;;;;;;0.30;0.30;;;13.30;97.60;;;;;;4881258;29;20226;-74
2022/04/07 15:57:38;;;;;;;1.90;0.53;;;13.20;97.60;;;;;;4881287;29;20241;-75
2022/04/07 16:00:09;;;;;;;3.67;0.50;;;13.10;97.70;;;;;;4894424;29;20249;-76
2022/04/07 16:02:38;;;;;;;1.30;0.63;;;13.10;98.40;;;;;;4880593;29;20421;-76
2022/04/07 16:05:07;;;;;;;0.83;0.40;;;13.10;98.40;;;;;;4880737;29;20233;-77
2022/04/07 16:07:37;;;;;;;0.90;0.53;;;13.10;98.00;;;;;;4880989;29;20237;-77
2022/04/07 16:10:10;;;;;;;0.57;0.30;;;13.10;98.10;;;;;;4895378;29;20205;-75
2022/04/07 16:12:40;;;;;;;0.50;0.40;;;13.10;98.30;;;;;;4899871;29;20197;-74
2022/04/07 16:15:10;;;;;;;1.40;0.30;;;13.20;98.10;;;;;;4899765;29;20237;-74
2022/04/07 16:17:40;;;;;;;0.53;0.53;;;13.20;98.00;;;;;;4898965;29;20691;-75
2022/04/07 16:20:09;;;;;;;0.83;0.60;;;13.20;98.30;;;;;;4898910;29;20595;-73
2022/04/07 16:22:37;;;;;;;1.60;1.13;;;13.30;98.00;;;;;;4893281;29;20322;-73
2022/04/07 16:25:07;;;;;;;1.77;0.73;;;13.30;98.30;;;;;;4895154;29;20315;-73
2022/04/07 16:27:35;;;;;;;1.33;0.60;;;13.30;98.20;;;;;;4888301;29;20219;-74
2022/04/07 16:30:04;;;;;;;0.50;0.50;;;13.30;98.10;;;;;;4889415;29;20244;-74
2022/04/07 16:32:34;;;;;;;1.43;0.30;;;13.30;97.40;;;;;;4888716;29;20273;-74
2022/04/07 16:35:02;;;;;;;0.50;0.43;;;13.30;97.50;;;;;;4886903;29;20661;-75
2022/04/07 16:37:30;;;;;;;0.87;0.50;;;13.30;97.70;;;;;;4895123;29;20266;-74
2022/04/07 16:39:58;;;;;;;0.50;0.50;;;13.30;97.90;;;;;;4892067;29;20289;-73
2022/04/07 16:42:26;;;;;;;1.07;0.40;;;13.30;97.40;;;;;;4886677;29;20851;-75
2022/04/07 16:44:55;;;;;;;0.77;0.40;;;13.30;97.30;;;;;;4895811;29;20298;-73
2022/04/07 16:47:23;;;;;;;1.63;0.50;;;13.30;97.00;;;;;;4897856;29;20253;-75
2022/04/07 16:49:57;;;;;;;2.53;0.50;;;13.40;97.30;;;;;;4897883;29;20304;-77
2022/04/07 16:52:26;;;;;;;0.30;0.30;;;13.30;96.60;;;;;;4898071;29;20213;-75
2022/04/07 16:54:56;;;;;;;1.57;0.43;;;13.40;96.90;;;;;;4898737;29;20289;-74
2022/04/07 16:57:24;;;;;;;0.50;0.40;;;13.30;96.80;;;;;;4898689;29;20634;-78
2022/04/07 16:59:53;;;;;;;1.37;0.60;;;13.30;96.80;;;;;;4894004;29;20202;-76
2022/04/07 17:02:23;;;;;;;0.90;0.80;;;13.30;96.90;;;;;;4897585;29;20217;-76
2022/04/07 17:04:51;;;;;;;0.30;0.30;;;13.30;96.30;;;;;;4898434;29;20699;-75
2022/04/07 17:07:24;;;;;;;0.70;0.50;;;13.30;96.20;;;;;;4893436;29;20213;-74
2022/04/07 17:09:54;;;;;;;1.77;0.30;;;13.30;96.20;;;;;;4897619;29;20206;-76
2022/04/07 17:12:24;;;;;;;0.30;0.30;;;13.30;95.80;;;;;;4898462;29;20229;-75